sensor_id;sensor_type;location;lat;lon;timestamp;temperature;humidity
22112;DHT22;11222;50.872;4.312;2023-07-29T00:02:08;19.80;99.90
22112;DHT22;11222;50.872;4.312;2023-07-29T00:04:34;19.80;99.90
22112;DHT22;11222;50.872;4.312;2023-07-29T00:07:00;19.80;99.90
22112;DHT22;11222;50.872;4.312;2023-07-29T00:09:25;19.70;99.90
22112;DHT22;11222;50.872;4.312;2023-07-29T00:11:51;19.70;99.90
22112;DHT22;11222;50.872;4.312;2023-07-29T00:14:17;19.60;99.90
22112;DHT22;11222;50.872;4.312;2023-07-29T00:16:42;19.60;99.90
22112;DHT22;11222;50.872;4.312;2023-07-29T00:19:08;19.50;99.90
22112;DHT22;11222;50.872;4.312;2023-07-29T00:21:34;19.50;99.90
22112;DHT22;11222;50.872;4.312;2023-07-29T00:23:59;19.50;99.90
22112;DHT22;11222;50.872;4.312;2023-07-29T00:26:27;19.40;99.90
22112;DHT22;11222;50.872;4.312;2023-07-29T00:28:57;19.40;99.90
22112;DHT22;11222;50.872;4.312;2023-07-29T00:31:23;19.30;99.90
22112;DHT22;11222;50.872;4.312;2023-07-29T00:33:48;19.30;99.90
22112;DHT22;11222;50.872;4.312;2023-07-29T00:36:14;19.30;99.90
22112;DHT22;11222;50.872;4.312;2023-07-29T00:38:40;19.30;99.90
22112;DHT22;11222;50.872;4.312;2023-07-29T00:41:06;19.30;99.90
22112;DHT22;11222;50.872;4.312;2023-07-29T00:43:32;19.30;99.90
22112;DHT22;11222;50.872;4.312;2023-07-29T00:45:57;19.20;99.90
22112;DHT22;11222;50.872;4.312;2023-07-29T00:48:25;19.20;99.90
22112;DHT22;11222;50.872;4.312;2023-07-29T00:50:51;19.20;99.90
22112;DHT22;11222;50.872;4.312;2023-07-29T00:53:17;19.20;99.90
22112;DHT22;11222;50.872;4.312;2023-07-29T00:55:43;19.10;99.90
22112;DHT22;11222;50.872;4.312;2023-07-29T00:58:09;19.00;99.90
22112;DHT22;11222;50.872;4.312;2023-07-29T01:00:35;19.00;99.90
22112;DHT22;11222;50.872;4.312;2023-07-29T01:03:01;19.00;99.90
22112;DHT22;11222;50.872;4.312;2023-07-29T01:05:32;19.00;99.90
22112;DHT22;11222;50.872;4.312;2023-07-29T01:07:59;18.90;99.90
22112;DHT22;11222;50.872;4.312;2023-07-29T01:10:33;18.90;99.90
22112;DHT22;11222;50.872;4.312;2023-07-29T01:13:42;18.90;99.90
22112;DHT22;11222;50.872;4.312;2023-07-29T01:16:39;18.90;99.90
22112;DHT22;11222;50.872;4.312;2023-07-29T01:19:14;18.90;99.90
22112;DHT22;11222;50.872;4.312;2023-07-29T01:21:44;19.00;99.90
22112;DHT22;11222;50.872;4.312;2023-07-29T01:24:10;19.00;99.90
22112;DHT22;11222;50.872;4.312;2023-07-29T01:26:35;19.00;99.90
22112;DHT22;11222;50.872;4.312;2023-07-29T01:29:01;19.10;99.90
22112;DHT22;11222;50.872;4.312;2023-07-29T01:31:35;19.10;99.90
22112;DHT22;11222;50.872;4.312;2023-07-29T01:34:13;19.10;99.90
22112;DHT22;11222;50.872;4.312;2023-07-29T01:36:43;19.10;99.90
22112;DHT22;11222;50.872;4.312;2023-07-29T01:39:11;19.00;99.90
22112;DHT22;11222;50.872;4.312;2023-07-29T01:41:37;18.90;99.90
22112;DHT22;11222;50.872;4.312;2023-07-29T01:44:04;18.90;99.90
22112;DHT22;11222;50.872;4.312;2023-07-29T01:46:33;18.80;99.90
22112;DHT22;11222;50.872;4.312;2023-07-29T01:48:59;18.80;99.90
22112;DHT22;11222;50.872;4.312;2023-07-29T01:51:25;18.80;99.90
22112;DHT22;11222;50.872;4.312;2023-07-29T01:53:50;18.80;99.90
22112;DHT22;11222;50.872;4.312;2023-07-29T01:56:16;18.80;99.90
22112;DHT22;11222;50.872;4.312;2023-07-29T01:58:41;18.80;99.90
22112;DHT22;11222;50.872;4.312;2023-07-29T02:01:07;18.80;99.90
22112;DHT22;11222;50.872;4.312;2023-07-29T02:03:33;18.80;99.90
22112;DHT22;11222;50.872;4.312;2023-07-29T02:05:58;18.70;99.90
22112;DHT22;11222;50.872;4.312;2023-07-29T02:08:24;18.70;99.90
22112;DHT22;11222;50.872;4.312;2023-07-29T02:10:49;18.70;99.90
22112;DHT22;11222;50.872;4.312;2023-07-29T02:13:15;18.70;99.90
22112;DHT22;11222;50.872;4.312;2023-07-29T02:15:41;18.70;99.90
22112;DHT22;11222;50.872;4.312;2023-07-29T02:18:06;18.60;99.90
22112;DHT22;11222;50.872;4.312;2023-07-29T02:20:32;18.60;99.90
22112;DHT22;11222;50.872;4.312;2023-07-29T02:22:58;18.60;99.90
22112;DHT22;11222;50.872;4.312;2023-07-29T02:25:24;18.50;99.90
22112;DHT22;11222;50.872;4.312;2023-07-29T02:27:50;18.50;99.90
22112;DHT22;11222;50.872;4.312;2023-07-29T02:30:15;18.50;99.90
22112;DHT22;11222;50.872;4.312;2023-07-29T02:32:41;18.50;99.90
22112;DHT22;11222;50.872;4.312;2023-07-29T02:35:07;18.40;99.90
22112;DHT22;11222;50.872;4.312;2023-07-29T02:37:32;18.50;99.90
22112;DHT22;11222;50.872;4.312;2023-07-29T02:39:58;18.50;99.90
22112;DHT22;11222;50.872;4.312;2023-07-29T02:42:24;18.50;99.90
22112;DHT22;11222;50.872;4.312;2023-07-29T02:44:49;18.60;99.90
22112;DHT22;11222;50.872;4.312;2023-07-29T02:47:15;18.50;99.90
22112;DHT22;11222;50.872;4.312;2023-07-29T02:49:41;18.50;99.90
22112;DHT22;11222;50.872;4.312;2023-07-29T02:52:06;18.60;99.90
22112;DHT22;11222;50.872;4.312;2023-07-29T02:54:32;18.60;99.90
22112;DHT22;11222;50.872;4.312;2023-07-29T02:56:58;18.70;99.90
22112;DHT22;11222;50.872;4.312;2023-07-29T02:59:23;18.60;99.90
22112;DHT22;11222;50.872;4.312;2023-07-29T03:01:50;18.70;99.90
22112;DHT22;11222;50.872;4.312;2023-07-29T03:04:15;18.70;99.90
22112;DHT22;11222;50.872;4.312;2023-07-29T03:06:41;18.60;99.90
22112;DHT22;11222;50.872;4.312;2023-07-29T03:09:07;18.60;99.90
22112;DHT22;11222;50.872;4.312;2023-07-29T03:11:33;18.50;99.90
22112;DHT22;11222;50.872;4.312;2023-07-29T03:13:58;18.40;99.90
22112;DHT22;11222;50.872;4.312;2023-07-29T03:16:24;18.40;99.90
22112;DHT22;11222;50.872;4.312;2023-07-29T03:18:50;18.40;99.90
22112;DHT22;11222;50.872;4.312;2023-07-29T03:21:15;18.30;99.90
22112;DHT22;11222;50.872;4.312;2023-07-29T03:23:41;18.20;99.90
22112;DHT22;11222;50.872;4.312;2023-07-29T03:26:07;18.30;99.90
22112;DHT22;11222;50.872;4.312;2023-07-29T03:28:38;18.20;99.90
22112;DHT22;11222;50.872;4.312;2023-07-29T03:31:03;18.30;99.90
22112;DHT22;11222;50.872;4.312;2023-07-29T03:33:29;18.30;99.90
22112;DHT22;11222;50.872;4.312;2023-07-29T03:35:55;18.20;99.90
22112;DHT22;11222;50.872;4.312;2023-07-29T03:38:21;18.30;99.90
22112;DHT22;11222;50.872;4.312;2023-07-29T03:40:46;18.20;99.90
22112;DHT22;11222;50.872;4.312;2023-07-29T03:43:12;18.20;99.90
22112;DHT22;11222;50.872;4.312;2023-07-29T03:45:41;18.30;99.90
22112;DHT22;11222;50.872;4.312;2023-07-29T03:48:07;18.20;99.90
22112;DHT22;11222;50.872;4.312;2023-07-29T03:50:34;18.20;99.90
22112;DHT22;11222;50.872;4.312;2023-07-29T03:53:01;18.20;99.90
22112;DHT22;11222;50.872;4.312;2023-07-29T03:55:27;18.20;99.90
22112;DHT22;11222;50.872;4.312;2023-07-29T03:57:58;18.20;99.90
22112;DHT22;11222;50.872;4.312;2023-07-29T04:00:24;18.10;99.90
22112;DHT22;11222;50.872;4.312;2023-07-29T04:02:50;18.10;99.90
22112;DHT22;11222;50.872;4.312;2023-07-29T04:05:16;18.10;99.90
22112;DHT22;11222;50.872;4.312;2023-07-29T04:07:41;18.10;99.90
22112;DHT22;11222;50.872;4.312;2023-07-29T04:10:07;18.10;99.90
22112;DHT22;11222;50.872;4.312;2023-07-29T04:12:33;18.10;99.90
22112;DHT22;11222;50.872;4.312;2023-07-29T04:14:59;18.10;99.90
22112;DHT22;11222;50.872;4.312;2023-07-29T04:17:25;18.10;99.90
22112;DHT22;11222;50.872;4.312;2023-07-29T04:19:50;18.00;99.90
22112;DHT22;11222;50.872;4.312;2023-07-29T04:22:16;18.10;99.90
22112;DHT22;11222;50.872;4.312;2023-07-29T04:24:42;18.10;99.90
22112;DHT22;11222;50.872;4.312;2023-07-29T04:27:08;18.20;99.90
22112;DHT22;11222;50.872;4.312;2023-07-29T04:29:34;18.20;99.90
22112;DHT22;11222;50.872;4.312;2023-07-29T04:32:04;18.20;99.90
22112;DHT22;11222;50.872;4.312;2023-07-29T04:34:30;18.20;99.90
22112;DHT22;11222;50.872;4.312;2023-07-29T04:36:55;18.20;99.90
22112;DHT22;11222;50.872;4.312;2023-07-29T04:39:21;18.20;99.90
22112;DHT22;11222;50.872;4.312;2023-07-29T04:41:47;18.20;99.90
22112;DHT22;11222;50.872;4.312;2023-07-29T04:44:12;18.10;99.90
22112;DHT22;11222;50.872;4.312;2023-07-29T04:46:38;18.00;99.90
22112;DHT22;11222;50.872;4.312;2023-07-29T04:49:04;18.00;99.90
22112;DHT22;11222;50.872;4.312;2023-07-29T04:51:30;17.90;99.90
22112;DHT22;11222;50.872;4.312;2023-07-29T04:53:57;17.90;99.90
22112;DHT22;11222;50.872;4.312;2023-07-29T04:56:23;18.00;99.90
22112;DHT22;11222;50.872;4.312;2023-07-29T04:58:48;17.90;99.90
22112;DHT22;11222;50.872;4.312;2023-07-29T05:01:14;17.90;99.90
22112;DHT22;11222;50.872;4.312;2023-07-29T05:03:40;17.90;99.90
22112;DHT22;11222;50.872;4.312;2023-07-29T05:06:05;17.90;99.90
22112;DHT22;11222;50.872;4.312;2023-07-29T05:08:34;18.00;99.90
22112;DHT22;11222;50.872;4.312;2023-07-29T05:11:00;18.00;99.90
22112;DHT22;11222;50.872;4.312;2023-07-29T05:13:25;18.10;99.90
22112;DHT22;11222;50.872;4.312;2023-07-29T05:15:51;18.20;99.90
22112;DHT22;11222;50.872;4.312;2023-07-29T05:18:17;18.20;99.90
22112;DHT22;11222;50.872;4.312;2023-07-29T05:20:42;18.20;99.90
22112;DHT22;11222;50.872;4.312;2023-07-29T05:23:08;18.30;99.90
22112;DHT22;11222;50.872;4.312;2023-07-29T05:25:34;18.20;99.90
22112;DHT22;11222;50.872;4.312;2023-07-29T05:28:03;18.20;99.90
22112;DHT22;11222;50.872;4.312;2023-07-29T05:30:29;18.20;99.90
22112;DHT22;11222;50.872;4.312;2023-07-29T05:32:59;18.10;99.90
22112;DHT22;11222;50.872;4.312;2023-07-29T05:35:27;18.10;99.90
22112;DHT22;11222;50.872;4.312;2023-07-29T05:37:52;18.10;99.90
22112;DHT22;11222;50.872;4.312;2023-07-29T05:40:18;18.20;99.90
22112;DHT22;11222;50.872;4.312;2023-07-29T05:42:44;18.30;99.90
22112;DHT22;11222;50.872;4.312;2023-07-29T05:45:11;18.50;99.90
22112;DHT22;11222;50.872;4.312;2023-07-29T05:47:36;18.60;99.90
22112;DHT22;11222;50.872;4.312;2023-07-29T05:50:05;18.70;99.90
22112;DHT22;11222;50.872;4.312;2023-07-29T05:52:35;18.80;99.90
22112;DHT22;11222;50.872;4.312;2023-07-29T05:55:05;18.80;99.90
22112;DHT22;11222;50.872;4.312;2023-07-29T05:57:33;18.80;99.90
22112;DHT22;11222;50.872;4.312;2023-07-29T06:00:00;18.70;99.90
22112;DHT22;11222;50.872;4.312;2023-07-29T06:02:27;18.70;99.90
22112;DHT22;11222;50.872;4.312;2023-07-29T06:04:59;18.70;99.90
22112;DHT22;11222;50.872;4.312;2023-07-29T06:07:31;18.80;99.90
22112;DHT22;11222;50.872;4.312;2023-07-29T06:10:01;18.80;99.90
22112;DHT22;11222;50.872;4.312;2023-07-29T06:12:30;18.80;99.90
22112;DHT22;11222;50.872;4.312;2023-07-29T06:15:00;18.90;99.90
22112;DHT22;11222;50.872;4.312;2023-07-29T06:17:28;19.00;99.90
22112;DHT22;11222;50.872;4.312;2023-07-29T06:19:57;19.10;99.90
22112;DHT22;11222;50.872;4.312;2023-07-29T06:22:29;19.10;99.90
22112;DHT22;11222;50.872;4.312;2023-07-29T06:25:00;19.30;99.90
22112;DHT22;11222;50.872;4.312;2023-07-29T06:27:29;19.50;99.90
22112;DHT22;11222;50.872;4.312;2023-07-29T06:29:56;19.60;99.90
22112;DHT22;11222;50.872;4.312;2023-07-29T06:32:21;19.70;99.90
22112;DHT22;11222;50.872;4.312;2023-07-29T06:34:47;20.00;99.90
22112;DHT22;11222;50.872;4.312;2023-07-29T06:37:13;20.00;99.90
22112;DHT22;11222;50.872;4.312;2023-07-29T06:39:38;20.00;99.90
22112;DHT22;11222;50.872;4.312;2023-07-29T06:42:04;20.00;99.90
22112;DHT22;11222;50.872;4.312;2023-07-29T06:44:30;20.00;99.90
22112;DHT22;11222;50.872;4.312;2023-07-29T06:46:55;20.10;99.90
22112;DHT22;11222;50.872;4.312;2023-07-29T06:49:22;20.10;99.90
22112;DHT22;11222;50.872;4.312;2023-07-29T06:51:48;20.10;99.90
22112;DHT22;11222;50.872;4.312;2023-07-29T06:54:16;20.10;99.90
22112;DHT22;11222;50.872;4.312;2023-07-29T06:56:42;20.10;99.90
22112;DHT22;11222;50.872;4.312;2023-07-29T06:59:08;20.10;99.90
22112;DHT22;11222;50.872;4.312;2023-07-29T07:01:34;20.10;99.90
22112;DHT22;11222;50.872;4.312;2023-07-29T07:04:00;20.10;99.90
22112;DHT22;11222;50.872;4.312;2023-07-29T07:06:25;20.10;99.90
22112;DHT22;11222;50.872;4.312;2023-07-29T07:08:51;20.10;99.90
22112;DHT22;11222;50.872;4.312;2023-07-29T07:11:18;20.20;99.90
22112;DHT22;11222;50.872;4.312;2023-07-29T07:13:44;20.20;99.90
22112;DHT22;11222;50.872;4.312;2023-07-29T07:16:09;20.10;99.90
22112;DHT22;11222;50.872;4.312;2023-07-29T07:18:35;20.10;99.90
22112;DHT22;11222;50.872;4.312;2023-07-29T07:21:01;19.90;99.90
22112;DHT22;11222;50.872;4.312;2023-07-29T07:23:26;19.90;99.90
22112;DHT22;11222;50.872;4.312;2023-07-29T07:25:52;19.80;99.90
22112;DHT22;11222;50.872;4.312;2023-07-29T07:28:18;19.80;99.90
22112;DHT22;11222;50.872;4.312;2023-07-29T07:30:43;19.70;99.90
22112;DHT22;11222;50.872;4.312;2023-07-29T07:33:09;19.70;99.90
22112;DHT22;11222;50.872;4.312;2023-07-29T07:35:35;19.70;99.90
22112;DHT22;11222;50.872;4.312;2023-07-29T07:38:01;19.80;99.90
22112;DHT22;11222;50.872;4.312;2023-07-29T07:40:30;20.00;99.90
22112;DHT22;11222;50.872;4.312;2023-07-29T07:42:56;20.00;99.90
22112;DHT22;11222;50.872;4.312;2023-07-29T07:45:21;20.20;99.90
22112;DHT22;11222;50.872;4.312;2023-07-29T07:47:47;20.40;99.90
22112;DHT22;11222;50.872;4.312;2023-07-29T07:50:13;20.70;99.90
22112;DHT22;11222;50.872;4.312;2023-07-29T07:52:41;20.70;99.90
22112;DHT22;11222;50.872;4.312;2023-07-29T07:55:07;20.70;99.90
22112;DHT22;11222;50.872;4.312;2023-07-29T07:57:33;21.20;99.90
22112;DHT22;11222;50.872;4.312;2023-07-29T07:59:59;21.80;99.90
22112;DHT22;11222;50.872;4.312;2023-07-29T08:02:24;22.30;99.90
22112;DHT22;11222;50.872;4.312;2023-07-29T08:04:50;22.40;99.90
22112;DHT22;11222;50.872;4.312;2023-07-29T08:07:16;22.30;99.90
22112;DHT22;11222;50.872;4.312;2023-07-29T08:09:41;22.30;99.90
22112;DHT22;11222;50.872;4.312;2023-07-29T08:12:07;22.60;99.90
22112;DHT22;11222;50.872;4.312;2023-07-29T08:14:33;22.70;99.90
22112;DHT22;11222;50.872;4.312;2023-07-29T08:16:58;23.20;99.90
22112;DHT22;11222;50.872;4.312;2023-07-29T08:19:24;23.30;99.90
22112;DHT22;11222;50.872;4.312;2023-07-29T08:21:50;23.00;99.90
22112;DHT22;11222;50.872;4.312;2023-07-29T08:24:15;23.20;99.90
22112;DHT22;11222;50.872;4.312;2023-07-29T08:26:41;23.30;99.90
22112;DHT22;11222;50.872;4.312;2023-07-29T08:29:06;23.50;99.90
22112;DHT22;11222;50.872;4.312;2023-07-29T08:31:32;23.70;99.90
22112;DHT22;11222;50.872;4.312;2023-07-29T08:33:59;23.50;99.90
22112;DHT22;11222;50.872;4.312;2023-07-29T08:36:25;23.50;99.90
22112;DHT22;11222;50.872;4.312;2023-07-29T08:38:51;23.30;99.90
22112;DHT22;11222;50.872;4.312;2023-07-29T08:44:06;23.10;99.90
22112;DHT22;11222;50.872;4.312;2023-07-29T08:46:33;23.90;99.90
22112;DHT22;11222;50.872;4.312;2023-07-29T08:48:59;24.30;99.90
22112;DHT22;11222;50.872;4.312;2023-07-29T08:51:27;24.90;99.90
22112;DHT22;11222;50.872;4.312;2023-07-29T08:53:55;25.90;99.90
22112;DHT22;11222;50.872;4.312;2023-07-29T08:56:21;27.20;99.90
22112;DHT22;11222;50.872;4.312;2023-07-29T08:58:47;27.30;99.90
22112;DHT22;11222;50.872;4.312;2023-07-29T09:01:14;26.80;99.90
22112;DHT22;11222;50.872;4.312;2023-07-29T09:03:41;26.10;99.90
22112;DHT22;11222;50.872;4.312;2023-07-29T09:06:07;26.10;99.90
22112;DHT22;11222;50.872;4.312;2023-07-29T09:08:34;25.90;99.90
22112;DHT22;11222;50.872;4.312;2023-07-29T09:11:00;26.00;99.90
22112;DHT22;11222;50.872;4.312;2023-07-29T09:13:25;25.10;99.90
22112;DHT22;11222;50.872;4.312;2023-07-29T09:15:55;24.80;99.90
22112;DHT22;11222;50.872;4.312;2023-07-29T09:18:21;24.60;99.90
22112;DHT22;11222;50.872;4.312;2023-07-29T09:20:48;24.70;99.90
22112;DHT22;11222;50.872;4.312;2023-07-29T09:23:14;24.60;99.90
22112;DHT22;11222;50.872;4.312;2023-07-29T09:25:40;24.50;99.90
22112;DHT22;11222;50.872;4.312;2023-07-29T09:28:14;24.60;99.90
22112;DHT22;11222;50.872;4.312;2023-07-29T09:30:42;24.20;99.90
22112;DHT22;11222;50.872;4.312;2023-07-29T09:33:10;23.80;99.90
22112;DHT22;11222;50.872;4.312;2023-07-29T09:35:36;23.50;99.90
22112;DHT22;11222;50.872;4.312;2023-07-29T09:38:06;23.40;99.90
22112;DHT22;11222;50.872;4.312;2023-07-29T09:40:39;23.30;99.90
22112;DHT22;11222;50.872;4.312;2023-07-29T09:43:07;23.30;99.90
22112;DHT22;11222;50.872;4.312;2023-07-29T09:45:34;23.10;99.90
22112;DHT22;11222;50.872;4.312;2023-07-29T09:48:01;22.80;99.90
22112;DHT22;11222;50.872;4.312;2023-07-29T09:50:27;22.60;99.90
22112;DHT22;11222;50.872;4.312;2023-07-29T09:52:54;22.70;99.90
22112;DHT22;11222;50.872;4.312;2023-07-29T09:55:22;22.80;99.90
22112;DHT22;11222;50.872;4.312;2023-07-29T09:57:53;23.40;99.90
22112;DHT22;11222;50.872;4.312;2023-07-29T10:00:19;24.70;99.90
22112;DHT22;11222;50.872;4.312;2023-07-29T10:02:45;26.70;99.90
22112;DHT22;11222;50.872;4.312;2023-07-29T10:05:11;28.50;99.90
22112;DHT22;11222;50.872;4.312;2023-07-29T10:07:38;29.20;99.90
22112;DHT22;11222;50.872;4.312;2023-07-29T10:10:05;29.10;99.90
22112;DHT22;11222;50.872;4.312;2023-07-29T10:12:32;28.10;99.90
22112;DHT22;11222;50.872;4.312;2023-07-29T10:15:04;27.50;99.90
22112;DHT22;11222;50.872;4.312;2023-07-29T10:17:30;26.80;99.90
22112;DHT22;11222;50.872;4.312;2023-07-29T10:19:58;27.50;99.90
22112;DHT22;11222;50.872;4.312;2023-07-29T10:22:27;27.50;99.90
22112;DHT22;11222;50.872;4.312;2023-07-29T10:25:02;27.10;99.90
22112;DHT22;11222;50.872;4.312;2023-07-29T10:27:30;27.30;99.90
22112;DHT22;11222;50.872;4.312;2023-07-29T10:29:58;26.90;99.90
22112;DHT22;11222;50.872;4.312;2023-07-29T10:32:25;25.80;99.90
22112;DHT22;11222;50.872;4.312;2023-07-29T10:34:54;24.90;99.90
22112;DHT22;11222;50.872;4.312;2023-07-29T10:37:21;24.20;99.90
22112;DHT22;11222;50.872;4.312;2023-07-29T10:39:54;23.70;99.90
22112;DHT22;11222;50.872;4.312;2023-07-29T10:42:20;22.90;99.90
22112;DHT22;11222;50.872;4.312;2023-07-29T10:44:47;22.30;99.90
22112;DHT22;11222;50.872;4.312;2023-07-29T10:47:22;22.10;99.90
22112;DHT22;11222;50.872;4.312;2023-07-29T10:49:56;22.00;99.90
22112;DHT22;11222;50.872;4.312;2023-07-29T10:52:31;22.00;99.90
22112;DHT22;11222;50.872;4.312;2023-07-29T10:55:03;21.80;99.90
22112;DHT22;11222;50.872;4.312;2023-07-29T10:57:38;22.10;99.90
22112;DHT22;11222;50.872;4.312;2023-07-29T11:00:06;22.20;99.90
22112;DHT22;11222;50.872;4.312;2023-07-29T11:02:35;22.10;99.90
22112;DHT22;11222;50.872;4.312;2023-07-29T11:05:18;22.00;99.90
22112;DHT22;11222;50.872;4.312;2023-07-29T11:07:45;21.90;99.90
22112;DHT22;11222;50.872;4.312;2023-07-29T11:10:12;21.80;99.90
22112;DHT22;11222;50.872;4.312;2023-07-29T11:12:57;21.60;99.90
22112;DHT22;11222;50.872;4.312;2023-07-29T11:15:28;21.40;99.90
22112;DHT22;11222;50.872;4.312;2023-07-29T11:18:00;21.10;99.90
22112;DHT22;11222;50.872;4.312;2023-07-29T11:20:35;21.10;99.90
22112;DHT22;11222;50.872;4.312;2023-07-29T11:23:01;21.20;99.90
22112;DHT22;11222;50.872;4.312;2023-07-29T11:25:29;21.30;99.90
22112;DHT22;11222;50.872;4.312;2023-07-29T11:27:56;21.40;99.90
22112;DHT22;11222;50.872;4.312;2023-07-29T11:30:22;21.60;99.90
22112;DHT22;11222;50.872;4.312;2023-07-29T11:32:59;22.30;99.90
22112;DHT22;11222;50.872;4.312;2023-07-29T11:35:25;24.30;99.90
22112;DHT22;11222;50.872;4.312;2023-07-29T11:37:53;24.50;99.90
22112;DHT22;11222;50.872;4.312;2023-07-29T11:40:21;24.30;99.90
22112;DHT22;11222;50.872;4.312;2023-07-29T11:42:48;24.90;99.90
22112;DHT22;11222;50.872;4.312;2023-07-29T11:45:15;25.10;99.90
22112;DHT22;11222;50.872;4.312;2023-07-29T11:47:41;25.30;99.90
22112;DHT22;11222;50.872;4.312;2023-07-29T11:50:10;25.10;99.90
22112;DHT22;11222;50.872;4.312;2023-07-29T11:52:37;25.60;99.90
22112;DHT22;11222;50.872;4.312;2023-07-29T11:55:04;25.90;99.90
22112;DHT22;11222;50.872;4.312;2023-07-29T11:57:32;26.30;99.90
22112;DHT22;11222;50.872;4.312;2023-07-29T11:59:59;26.00;99.90
22112;DHT22;11222;50.872;4.312;2023-07-29T12:02:25;27.50;99.90
22112;DHT22;11222;50.872;4.312;2023-07-29T12:04:52;27.50;99.90
22112;DHT22;11222;50.872;4.312;2023-07-29T12:07:18;26.30;99.90
22112;DHT22;11222;50.872;4.312;2023-07-29T12:09:46;24.90;99.90
22112;DHT22;11222;50.872;4.312;2023-07-29T12:12:12;23.90;99.90
22112;DHT22;11222;50.872;4.312;2023-07-29T12:14:37;23.20;99.90
22112;DHT22;11222;50.872;4.312;2023-07-29T12:17:05;22.60;99.90
22112;DHT22;11222;50.872;4.312;2023-07-29T12:19:37;22.50;99.90
22112;DHT22;11222;50.872;4.312;2023-07-29T12:22:04;22.60;99.90
22112;DHT22;11222;50.872;4.312;2023-07-29T12:24:31;23.10;99.90
22112;DHT22;11222;50.872;4.312;2023-07-29T12:26:57;23.50;99.90
22112;DHT22;11222;50.872;4.312;2023-07-29T12:29:23;23.90;99.90
22112;DHT22;11222;50.872;4.312;2023-07-29T12:32:05;24.20;99.90
22112;DHT22;11222;50.872;4.312;2023-07-29T12:34:31;24.20;99.90
22112;DHT22;11222;50.872;4.312;2023-07-29T12:36:58;24.20;99.90
22112;DHT22;11222;50.872;4.312;2023-07-29T12:39:29;23.90;99.90
22112;DHT22;11222;50.872;4.312;2023-07-29T12:41:57;23.60;99.90
22112;DHT22;11222;50.872;4.312;2023-07-29T12:44:31;23.60;99.90
22112;DHT22;11222;50.872;4.312;2023-07-29T12:46:57;23.60;99.90
22112;DHT22;11222;50.872;4.312;2023-07-29T12:49:23;23.70;99.90
22112;DHT22;11222;50.872;4.312;2023-07-29T12:51:48;23.80;99.90
22112;DHT22;11222;50.872;4.312;2023-07-29T12:54:14;23.80;99.90
22112;DHT22;11222;50.872;4.312;2023-07-29T12:56:40;23.90;99.90
22112;DHT22;11222;50.872;4.312;2023-07-29T12:59:06;23.90;99.90
22112;DHT22;11222;50.872;4.312;2023-07-29T13:01:31;24.10;99.90
22112;DHT22;11222;50.872;4.312;2023-07-29T13:03:57;24.30;99.90
22112;DHT22;11222;50.872;4.312;2023-07-29T13:06:23;24.30;99.90
22112;DHT22;11222;50.872;4.312;2023-07-29T13:08:49;23.90;99.90
22112;DHT22;11222;50.872;4.312;2023-07-29T13:11:15;23.90;99.90
22112;DHT22;11222;50.872;4.312;2023-07-29T13:13:41;23.90;99.90
22112;DHT22;11222;50.872;4.312;2023-07-29T13:16:07;24.00;99.90
22112;DHT22;11222;50.872;4.312;2023-07-29T13:18:33;24.00;99.90
22112;DHT22;11222;50.872;4.312;2023-07-29T13:20:59;24.10;99.90
22112;DHT22;11222;50.872;4.312;2023-07-29T13:23:26;24.30;99.90
22112;DHT22;11222;50.872;4.312;2023-07-29T13:25:52;24.40;99.90
22112;DHT22;11222;50.872;4.312;2023-07-29T13:28:17;24.10;99.90
22112;DHT22;11222;50.872;4.312;2023-07-29T13:30:44;24.00;99.90
22112;DHT22;11222;50.872;4.312;2023-07-29T13:33:10;24.20;99.90
22112;DHT22;11222;50.872;4.312;2023-07-29T13:35:35;24.30;99.90
22112;DHT22;11222;50.872;4.312;2023-07-29T13:38:02;24.20;99.90
22112;DHT22;11222;50.872;4.312;2023-07-29T13:40:27;24.40;99.90
22112;DHT22;11222;50.872;4.312;2023-07-29T13:42:54;24.30;99.90
22112;DHT22;11222;50.872;4.312;2023-07-29T13:45:20;24.20;99.90
22112;DHT22;11222;50.872;4.312;2023-07-29T13:47:45;24.20;99.90
22112;DHT22;11222;50.872;4.312;2023-07-29T13:50:11;24.10;99.90
22112;DHT22;11222;50.872;4.312;2023-07-29T13:52:37;24.20;99.90
22112;DHT22;11222;50.872;4.312;2023-07-29T13:55:04;24.50;99.90
22112;DHT22;11222;50.872;4.312;2023-07-29T13:57:29;24.70;99.90
22112;DHT22;11222;50.872;4.312;2023-07-29T13:59:55;25.00;99.90
22112;DHT22;11222;50.872;4.312;2023-07-29T14:02:21;24.80;99.90
22112;DHT22;11222;50.872;4.312;2023-07-29T14:04:46;24.70;99.90
22112;DHT22;11222;50.872;4.312;2023-07-29T14:07:12;24.70;99.90
22112;DHT22;11222;50.872;4.312;2023-07-29T14:09:38;24.90;99.90
22112;DHT22;11222;50.872;4.312;2023-07-29T14:12:04;24.90;99.90
22112;DHT22;11222;50.872;4.312;2023-07-29T14:14:30;24.50;99.90
22112;DHT22;11222;50.872;4.312;2023-07-29T14:16:56;24.30;99.90
22112;DHT22;11222;50.872;4.312;2023-07-29T14:19:23;24.30;99.90
22112;DHT22;11222;50.872;4.312;2023-07-29T14:21:49;24.30;99.90
22112;DHT22;11222;50.872;4.312;2023-07-29T14:24:14;24.50;99.90
22112;DHT22;11222;50.872;4.312;2023-07-29T14:26:41;24.50;99.90
22112;DHT22;11222;50.872;4.312;2023-07-29T14:29:07;24.40;99.90
22112;DHT22;11222;50.872;4.312;2023-07-29T14:31:32;24.50;99.90
22112;DHT22;11222;50.872;4.312;2023-07-29T14:33:58;24.30;99.90
22112;DHT22;11222;50.872;4.312;2023-07-29T14:36:25;24.20;99.90
22112;DHT22;11222;50.872;4.312;2023-07-29T14:38:51;24.10;99.90
22112;DHT22;11222;50.872;4.312;2023-07-29T14:41:16;24.10;99.90
22112;DHT22;11222;50.872;4.312;2023-07-29T14:43:42;24.30;99.90
22112;DHT22;11222;50.872;4.312;2023-07-29T14:46:08;24.20;99.90
22112;DHT22;11222;50.872;4.312;2023-07-29T14:48:33;24.10;99.90
22112;DHT22;11222;50.872;4.312;2023-07-29T14:50:59;24.00;99.90
22112;DHT22;11222;50.872;4.312;2023-07-29T14:53:25;23.90;99.90
22112;DHT22;11222;50.872;4.312;2023-07-29T14:55:50;23.80;99.90
22112;DHT22;11222;50.872;4.312;2023-07-29T14:58:16;23.70;99.90
22112;DHT22;11222;50.872;4.312;2023-07-29T15:00:42;23.90;99.90
22112;DHT22;11222;50.872;4.312;2023-07-29T15:03:08;23.90;99.90
22112;DHT22;11222;50.872;4.312;2023-07-29T15:05:34;23.90;99.90
22112;DHT22;11222;50.872;4.312;2023-07-29T15:07:59;23.90;99.90
22112;DHT22;11222;50.872;4.312;2023-07-29T15:10:25;23.80;99.90
22112;DHT22;11222;50.872;4.312;2023-07-29T15:12:51;23.70;99.90
22112;DHT22;11222;50.872;4.312;2023-07-29T15:15:17;23.60;99.90
22112;DHT22;11222;50.872;4.312;2023-07-29T15:17:42;23.70;99.90
22112;DHT22;11222;50.872;4.312;2023-07-29T15:20:09;23.60;99.90
22112;DHT22;11222;50.872;4.312;2023-07-29T15:22:34;23.60;99.90
22112;DHT22;11222;50.872;4.312;2023-07-29T15:25:00;23.50;99.90
22112;DHT22;11222;50.872;4.312;2023-07-29T15:27:29;23.40;99.90
22112;DHT22;11222;50.872;4.312;2023-07-29T15:29:55;23.60;99.90
22112;DHT22;11222;50.872;4.312;2023-07-29T15:32:21;23.70;99.90